Terminal Aerodrome Forecast
Issued by NWS

Current Version | Previous Version | Graphics & Text | Print | Product List | Glossary On
Versions: 1 2 3 4 5 6 7 8 9 10 11 12 13 14 15 16 17 18 19 20 21 22
805
FTUS41 KILN 221143
TAFLUK
TAF
KLUK 221143Z 2212/2312 23010KT P6SM VCSH BKN040 OVC100
     FM221800 23011G19KT P6SM SCT040
     FM222300 22008KT P6SM SCT050
     FM230600 23010KT 5SM -SHRA VCTS BKN050CB OVC100
      TEMPO 2306/2309 2SM TSRA BKN025CB
     FM231100 26008KT P6SM VCSH BKN050=

USA.gov is the U.S. government's official web portal to all federal, state and local government web resources and services.